createdAt,value
2022-07-31T00:02:09.863Z,100842.00
2022-07-31T00:04:38.291Z,100842.00
2022-07-31T00:07:07.095Z,100843.06
2022-07-31T00:09:53.734Z,100848.00
2022-07-31T00:12:23.362Z,100849.47
2022-07-31T00:14:52.051Z,100856.34
2022-07-31T00:17:20.485Z,100858.84
2022-07-31T00:19:48.960Z,100856.13
2022-07-31T00:22:17.630Z,100856.34
2022-07-31T00:24:46.300Z,100855.94
2022-07-31T00:27:14.692Z,100853.44
2022-07-31T00:29:43.240Z,100843.41
2022-07-31T00:32:11.770Z,100845.31
2022-07-31T00:34:40.374Z,100845.88
2022-07-31T00:37:10.321Z,100847.56
2022-07-31T00:39:38.874Z,100849.03
2022-07-31T00:42:20.421Z,100851.75
2022-07-31T00:44:49.535Z,100844.88
2022-07-31T00:47:18.171Z,100845.06
2022-07-31T00:49:53.039Z,100845.47
2022-07-31T00:52:21.700Z,100840.00
2022-07-31T00:54:50.342Z,100839.56
2022-07-31T00:57:19.123Z,100828.31
2022-07-31T00:59:47.579Z,100832.31
2022-07-31T01:02:16.016Z,100829.16
2022-07-31T01:04:45.815Z,100827.91
2022-07-31T01:07:14.552Z,100820.00
2022-07-31T01:09:42.970Z,100823.53
2022-07-31T01:12:23.001Z,100815.41
2022-07-31T01:14:57.541Z,100815.84
2022-07-31T01:17:28.661Z,100807.53
2022-07-31T01:19:57.302Z,100815.44
2022-07-31T01:23:13.621Z,100818.78
2022-07-31T01:26:25.461Z,100808.53
2022-07-31T01:29:29.516Z,100814.56
2022-07-31T01:32:18.203Z,100808.50
2022-07-31T01:34:50.232Z,100809.09
2022-07-31T01:37:31.595Z,100799.75
2022-07-31T01:40:14.999Z,100800.78
2022-07-31T01:42:45.023Z,100801.19
2022-07-31T01:45:14.671Z,100796.16
2022-07-31T01:47:43.092Z,100804.84
2022-07-31T01:50:42.816Z,100801.94
2022-07-31T01:53:01.241Z,100795.28
2022-07-31T01:55:30.013Z,100804.47
2022-07-31T01:57:58.601Z,100805.97
2022-07-31T02:00:34.268Z,100814.09
2022-07-31T02:03:09.398Z,100810.47
2022-07-31T02:05:42.082Z,100806.13
2022-07-31T02:08:12.433Z,100803.19
2022-07-31T02:10:45.713Z,100805.66
2022-07-31T02:13:14.665Z,100815.66
2022-07-31T02:15:43.142Z,100814.81
2022-07-31T02:18:12.982Z,100809.56
2022-07-31T02:20:41.762Z,100811.00
2022-07-31T02:23:12.426Z,100815.22
2022-07-31T02:25:41.182Z,100812.44
2022-07-31T02:28:13.585Z,100818.91
2022-07-31T02:30:44.411Z,100817.94
2022-07-31T02:33:20.424Z,100826.94
2022-07-31T02:35:51.751Z,100818.81
2022-07-31T02:38:23.893Z,100810.91
2022-07-31T02:41:00.549Z,100810.88
2022-07-31T02:43:33.471Z,100811.34
2022-07-31T02:46:08.070Z,100813.47
2022-07-31T02:48:37.545Z,100808.06
2022-07-31T02:51:09.715Z,100796.09
2022-07-31T02:53:38.696Z,100795.28
2022-07-31T02:56:11.162Z,100797.78
2022-07-31T02:58:42.835Z,100801.50
2022-07-31T03:01:20.457Z,100796.09
2022-07-31T03:03:50.493Z,100795.28
2022-07-31T03:06:19.545Z,100786.84
2022-07-31T03:08:48.753Z,100797.03
2022-07-31T03:11:21.763Z,100799.28
2022-07-31T03:13:50.403Z,100802.25
2022-07-31T03:16:18.893Z,100795.78
2022-07-31T03:18:47.622Z,100801.28
2022-07-31T03:21:16.192Z,100798.59
2022-07-31T03:23:44.752Z,100804.41
2022-07-31T03:26:19.485Z,100805.38
2022-07-31T03:28:49.088Z,100807.75
2022-07-31T03:31:17.507Z,100801.59
2022-07-31T03:33:46.716Z,100799.31
2022-07-31T03:36:17.313Z,100815.22
2022-07-31T03:38:50.479Z,100800.78
2022-07-31T03:41:37.888Z,100807.44
2022-07-31T03:44:06.423Z,100806.09
2022-07-31T03:46:35.363Z,100805.63
2022-07-31T03:49:04.931Z,100808.47
2022-07-31T03:51:35.543Z,100806.56
2022-07-31T03:54:04.193Z,100813.72
2022-07-31T03:56:52.703Z,100808.78
2022-07-31T03:59:21.687Z,100805.31
2022-07-31T04:01:58.187Z,100803.44
2022-07-31T04:04:47.442Z,100795.41
2022-07-31T04:07:16.277Z,100793.91
2022-07-31T04:09:44.873Z,100791.09
2022-07-31T04:12:15.234Z,100792.28
2022-07-31T04:14:44.465Z,100799.72
2022-07-31T04:17:13.199Z,100785.16
2022-07-31T04:19:42.928Z,100796.44
2022-07-31T04:22:11.871Z,100788.53
2022-07-31T04:24:41.350Z,100791.25
2022-07-31T04:27:28.052Z,100798.56
2022-07-31T04:29:57.802Z,100795.72
2022-07-31T04:32:26.322Z,100801.31
2022-07-31T04:34:59.918Z,100803.13
2022-07-31T04:37:29.371Z,100808.34
2022-07-31T04:39:59.341Z,100808.97
2022-07-31T04:42:28.200Z,100799.06
2022-07-31T04:45:02.901Z,100802.47
2022-07-31T04:47:32.490Z,100805.13
2022-07-31T04:50:01.319Z,100793.53
2022-07-31T04:52:29.860Z,100804.78
2022-07-31T04:55:05.620Z,100806.88
2022-07-31T04:57:34.140Z,100807.06
2022-07-31T05:00:04.944Z,100806.13
2022-07-31T05:02:35.280Z,100804.47
2022-07-31T05:05:04.422Z,100794.44
2022-07-31T05:07:37.021Z,100797.00
2022-07-31T05:10:31.410Z,100796.22
2022-07-31T05:13:00.330Z,100796.84
2022-07-31T05:15:28.870Z,100793.69
2022-07-31T05:17:58.555Z,100786.44
2022-07-31T05:20:45.479Z,100794.22
2022-07-31T05:23:30.070Z,100783.38
2022-07-31T05:26:18.153Z,100783.81
2022-07-31T05:28:47.600Z,100781.53
2022-07-31T05:31:18.452Z,100786.72
2022-07-31T05:33:48.411Z,100787.06
2022-07-31T05:36:19.104Z,100794.97
2022-07-31T05:38:47.821Z,100800.53
2022-07-31T05:41:34.741Z,100804.06
2022-07-31T05:44:29.422Z,100791.34
2022-07-31T05:49:27.247Z,100802.03
2022-07-31T05:51:57.332Z,100794.59
2022-07-31T05:54:25.970Z,100801.84
2022-07-31T05:57:12.900Z,100802.44
2022-07-31T06:00:02.007Z,100805.63
2022-07-31T06:02:40.545Z,100814.25
2022-07-31T06:05:23.784Z,100813.53
2022-07-31T06:07:52.606Z,100805.50
2022-07-31T06:10:23.264Z,100816.81
2022-07-31T06:12:52.836Z,100817.84
2022-07-31T06:15:21.625Z,100816.00
2022-07-31T06:17:51.504Z,100819.88
2022-07-31T06:20:28.928Z,100814.53
2022-07-31T06:22:57.565Z,100821.47
2022-07-31T06:25:34.967Z,100816.50
2022-07-31T06:28:10.547Z,100822.25
2022-07-31T06:30:42.286Z,100816.94
2022-07-31T06:33:36.647Z,100821.59
2022-07-31T06:35:59.828Z,100820.19
2022-07-31T06:38:51.225Z,100817.53
2022-07-31T06:41:48.766Z,100819.16
2022-07-31T06:44:29.795Z,100817.47
2022-07-31T06:47:15.743Z,100818.22
2022-07-31T06:50:06.175Z,100811.06
2022-07-31T06:52:48.428Z,100815.47
2022-07-31T06:55:18.440Z,100814.88
2022-07-31T06:57:46.935Z,100815.72
2022-07-31T07:00:20.524Z,100815.06
2022-07-31T07:02:52.567Z,100817.78
2022-07-31T07:05:21.975Z,100820.75
2022-07-31T07:07:53.866Z,100819.53
2022-07-31T07:10:22.687Z,100820.75
2022-07-31T07:13:00.159Z,100826.56
2022-07-31T07:15:33.117Z,100831.78
2022-07-31T07:18:01.634Z,100833.28
2022-07-31T07:20:51.425Z,100831.06
2022-07-31T07:23:20.355Z,100829.09
2022-07-31T07:26:15.474Z,100825.75
2022-07-31T07:28:44.345Z,100831.22
2022-07-31T07:31:12.845Z,100835.34
2022-07-31T07:33:43.109Z,100841.13
2022-07-31T07:36:22.937Z,100823.44
2022-07-31T07:39:16.134Z,100822.13
2022-07-31T07:41:45.511Z,100830.31
2022-07-31T07:44:13.973Z,100823.31
2022-07-31T07:46:42.853Z,100815.41
2022-07-31T07:49:15.211Z,100824.81
2022-07-31T07:51:58.471Z,100820.53
2022-07-31T07:54:43.232Z,100822.75
2022-07-31T07:57:18.978Z,100827.63
2022-07-31T08:00:11.127Z,100820.91
2022-07-31T08:03:47.234Z,100824.34
2022-07-31T08:05:39.785Z,100825.56
2022-07-31T08:08:08.618Z,100828.78
2022-07-31T08:10:57.315Z,100824.53
2022-07-31T08:13:40.871Z,100822.00
2022-07-31T08:16:29.894Z,100831.81
2022-07-31T08:19:01.324Z,100832.81
2022-07-31T08:21:30.184Z,100823.75
2022-07-31T08:23:58.685Z,100814.63
2022-07-31T08:26:28.299Z,100814.78
2022-07-31T08:28:58.324Z,100822.34
2022-07-31T08:31:34.036Z,100817.88
2022-07-31T08:34:31.364Z,100818.69
2022-07-31T08:37:51.815Z,100817.88
2022-07-31T08:39:55.586Z,100817.53
2022-07-31T08:42:24.986Z,100826.47
2022-07-31T08:44:53.894Z,100812.13
2022-07-31T08:47:27.999Z,100814.66
2022-07-31T08:50:00.035Z,100819.66
2022-07-31T08:52:31.405Z,100812.91
2022-07-31T08:55:24.825Z,100819.41
2022-07-31T08:58:12.155Z,100821.41
2022-07-31T09:00:43.434Z,100817.88
2022-07-31T09:03:12.218Z,100825.63
2022-07-31T09:05:54.675Z,100810.53
2022-07-31T09:08:24.188Z,100819.13
2022-07-31T09:11:09.485Z,100831.47
2022-07-31T09:14:01.802Z,100820.88
2022-07-31T09:16:48.406Z,100821.97
2022-07-31T09:19:52.152Z,100817.34
2022-07-31T09:22:27.227Z,100827.50
2022-07-31T09:25:13.257Z,100828.56
2022-07-31T09:27:42.035Z,100817.75
2022-07-31T09:30:12.126Z,100822.53
2022-07-31T09:33:22.226Z,100819.38
2022-07-31T09:36:10.194Z,100819.59
2022-07-31T09:38:42.424Z,100810.84
2022-07-31T09:42:00.232Z,100817.13
2022-07-31T09:45:06.145Z,100820.66
2022-07-31T09:47:37.974Z,100816.91
2022-07-31T09:50:08.703Z,100820.50
2022-07-31T09:52:37.500Z,100813.66
2022-07-31T09:55:15.678Z,100799.75
2022-07-31T09:57:54.353Z,100812.47
2022-07-31T10:00:23.528Z,100805.72
2022-07-31T10:02:57.011Z,100798.63
2022-07-31T10:05:28.390Z,100808.81
2022-07-31T10:08:01.946Z,100808.63
2022-07-31T10:10:52.208Z,100805.09
2022-07-31T10:13:46.845Z,100799.06
2022-07-31T10:16:15.889Z,100798.44
2022-07-31T10:19:00.401Z,100794.91
2022-07-31T10:21:54.492Z,100798.06
2022-07-31T10:24:30.248Z,100785.78
2022-07-31T10:27:03.833Z,100787.06
2022-07-31T10:29:39.828Z,100785.84
2022-07-31T10:32:08.917Z,100779.19
2022-07-31T10:34:43.268Z,100789.19
2022-07-31T10:38:06.655Z,100784.78
2022-07-31T10:41:18.290Z,100795.44
2022-07-31T10:43:54.984Z,100774.16
2022-07-31T10:46:33.574Z,100776.47
2022-07-31T10:49:33.749Z,100774.00
2022-07-31T10:52:31.757Z,100774.22
2022-07-31T10:55:25.856Z,100777.00
2022-07-31T10:58:19.851Z,100775.28
2022-07-31T11:01:09.715Z,100768.59
2022-07-31T11:03:47.215Z,100769.50
2022-07-31T11:06:25.025Z,100757.66
2022-07-31T11:08:58.547Z,100767.03
2022-07-31T11:11:50.985Z,100762.88
2022-07-31T11:14:41.508Z,100756.81
2022-07-31T11:18:25.198Z,100754.56
2022-07-31T11:20:34.260Z,100750.38
2022-07-31T11:23:08.854Z,100750.41
2022-07-31T11:25:37.874Z,100748.50
2022-07-31T11:28:25.045Z,100748.09
2022-07-31T11:31:01.364Z,100747.06
2022-07-31T11:33:41.851Z,100744.34
2022-07-31T11:36:21.098Z,100739.53
2022-07-31T11:38:52.285Z,100737.69
2022-07-31T11:41:24.272Z,100736.44
2022-07-31T11:43:53.164Z,100737.28
2022-07-31T11:46:39.958Z,100742.72
2022-07-31T11:49:08.539Z,100742.25
2022-07-31T11:51:37.284Z,100727.69
2022-07-31T11:54:05.905Z,100739.78
2022-07-31T11:56:34.370Z,100727.28
2022-07-31T11:59:03.094Z,100727.91
2022-07-31T12:01:34.447Z,100721.22
2022-07-31T12:04:08.801Z,100724.75
2022-07-31T12:06:39.732Z,100723.31
2022-07-31T12:10:02.749Z,100712.88
2022-07-31T12:11:58.200Z,100714.75
2022-07-31T12:14:37.054Z,100707.25
2022-07-31T12:17:07.897Z,100695.97
2022-07-31T12:19:38.764Z,100696.16
2022-07-31T12:22:20.556Z,100701.59
2022-07-31T12:24:49.054Z,100693.44
2022-07-31T12:27:18.725Z,100695.53
2022-07-31T12:29:47.209Z,100698.84
2022-07-31T12:32:15.654Z,100693.00
2022-07-31T12:34:45.185Z,100689.25
2022-07-31T12:37:19.612Z,100680.06
2022-07-31T12:40:00.194Z,100678.38
2022-07-31T12:42:35.130Z,100673.16
2022-07-31T12:45:17.967Z,100671.13
2022-07-31T12:47:51.190Z,100671.88
2022-07-31T12:50:25.834Z,100660.00
2022-07-31T12:52:54.957Z,100666.25
2022-07-31T12:55:23.623Z,100652.47
2022-07-31T12:57:52.652Z,100656.16
2022-07-31T13:00:25.384Z,100651.13
2022-07-31T13:02:55.545Z,100641.59
2022-07-31T13:05:24.266Z,100652.81
2022-07-31T13:07:53.184Z,100650.03
2022-07-31T13:10:24.753Z,100650.03
2022-07-31T13:12:53.992Z,100641.75
2022-07-31T13:15:30.040Z,100643.22
2022-07-31T13:18:02.201Z,100640.41
2022-07-31T13:20:31.393Z,100648.81
2022-07-31T13:23:00.005Z,100636.31
2022-07-31T13:25:31.675Z,100638.41
2022-07-31T13:28:00.568Z,100629.41
2022-07-31T13:30:29.168Z,100638.31
2022-07-31T13:32:57.677Z,100627.44
2022-07-31T13:35:28.451Z,100624.56
2022-07-31T13:37:57.510Z,100625.31
2022-07-31T13:40:44.865Z,100623.41
2022-07-31T13:43:13.710Z,100614.69
2022-07-31T13:45:42.263Z,100616.34
2022-07-31T13:48:10.697Z,100618.34
2022-07-31T13:50:42.255Z,100619.63
2022-07-31T13:53:11.015Z,100610.44
2022-07-31T13:55:39.472Z,100600.22
2022-07-31T13:58:09.086Z,100606.41
2022-07-31T14:00:37.551Z,100603.78
2022-07-31T14:03:05.972Z,100601.72
2022-07-31T14:05:39.940Z,100599.72
2022-07-31T14:08:33.162Z,100593.84
2022-07-31T14:10:58.273Z,100592.47
2022-07-31T14:13:26.944Z,100591.59
2022-07-31T14:15:55.645Z,100585.75
2022-07-31T14:18:24.862Z,100588.63
2022-07-31T14:20:53.265Z,100588.50
2022-07-31T14:23:34.082Z,100583.47
2022-07-31T14:26:05.621Z,100586.16
2022-07-31T14:28:34.116Z,100577.66
2022-07-31T14:31:02.647Z,100576.84
2022-07-31T14:33:31.401Z,100579.13
2022-07-31T14:36:00.116Z,100572.19
2022-07-31T14:38:28.691Z,100580.66
2022-07-31T14:40:57.455Z,100576.31
2022-07-31T14:43:25.964Z,100573.69
2022-07-31T14:45:54.479Z,100578.97
2022-07-31T14:48:23.498Z,100572.00
2022-07-31T14:50:52.107Z,100565.66
2022-07-31T14:53:20.698Z,100577.50
2022-07-31T14:55:49.671Z,100560.66
2022-07-31T14:58:18.358Z,100570.09
2022-07-31T15:00:47.071Z,100564.50
2022-07-31T15:03:15.957Z,100569.38
2022-07-31T15:06:41.512Z,100557.69
2022-07-31T15:08:33.628Z,100564.66
2022-07-31T15:11:03.021Z,100556.06
2022-07-31T15:13:34.019Z,100554.56
2022-07-31T15:16:05.537Z,100547.91
2022-07-31T15:18:34.119Z,100547.31
2022-07-31T15:21:02.655Z,100547.31
2022-07-31T15:23:35.960Z,100552.13
2022-07-31T15:26:05.123Z,100553.94
2022-07-31T15:28:34.949Z,100552.34
2022-07-31T15:31:04.417Z,100554.25
2022-07-31T15:33:33.439Z,100545.63
2022-07-31T15:36:02.989Z,100550.66
2022-07-31T15:38:31.818Z,100541.69
2022-07-31T15:41:00.699Z,100540.47
2022-07-31T15:43:29.717Z,100541.41
2022-07-31T15:46:01.282Z,100540.06
2022-07-31T15:48:29.928Z,100547.78
2022-07-31T15:50:58.761Z,100541.88
2022-07-31T15:53:32.835Z,100541.25
2022-07-31T15:56:08.381Z,100542.25
2022-07-31T15:58:37.017Z,100534.72
2022-07-31T16:01:05.687Z,100544.47
2022-07-31T16:03:50.492Z,100543.63
2022-07-31T16:06:28.001Z,100532.03
2022-07-31T16:09:01.259Z,100527.28
2022-07-31T16:12:03.563Z,100536.53
2022-07-31T16:14:18.838Z,100525.72
2022-07-31T16:16:47.478Z,100515.13
2022-07-31T16:19:20.627Z,100517.84
2022-07-31T16:21:49.748Z,100516.81
2022-07-31T16:24:20.319Z,100514.91
2022-07-31T16:26:50.204Z,100516.41
2022-07-31T16:29:57.783Z,100508.25
2022-07-31T16:32:10.479Z,100501.22
2022-07-31T16:34:39.942Z,100506.38
2022-07-31T16:37:08.575Z,100503.66
2022-07-31T16:39:37.348Z,100498.81
2022-07-31T16:42:06.270Z,100504.72
2022-07-31T16:44:37.379Z,100503.88
2022-07-31T16:47:07.102Z,100503.66
2022-07-31T16:49:39.443Z,100510.81
2022-07-31T16:52:08.350Z,100509.09
2022-07-31T16:54:37.005Z,100503.13
2022-07-31T16:57:05.786Z,100505.25
2022-07-31T16:59:35.087Z,100503.94
2022-07-31T17:02:25.028Z,100500.09
2022-07-31T17:04:54.258Z,100503.94
2022-07-31T17:07:23.656Z,100505.59
2022-07-31T17:09:52.218Z,100500.84
2022-07-31T17:12:21.346Z,100504.38
2022-07-31T17:14:51.178Z,100509.00
2022-07-31T17:17:20.995Z,100502.34
2022-07-31T17:19:55.150Z,100493.97
2022-07-31T17:22:24.070Z,100502.13
2022-07-31T17:24:53.303Z,100510.28
2022-07-31T17:27:22.759Z,100510.06
2022-07-31T17:29:51.734Z,100510.28
2022-07-31T17:32:20.533Z,100507.09
2022-07-31T17:34:49.966Z,100516.53
2022-07-31T17:37:19.100Z,100516.47
2022-07-31T17:39:47.935Z,100513.75
2022-07-31T17:42:18.178Z,100519.47
2022-07-31T17:44:55.184Z,100513.22
2022-07-31T17:47:25.993Z,100519.94
2022-07-31T17:49:54.982Z,100516.88
2022-07-31T17:52:23.968Z,100523.81
2022-07-31T17:54:53.844Z,100526.75
2022-07-31T17:57:29.753Z,100536.59
2022-07-31T17:59:59.133Z,100529.72
2022-07-31T18:02:28.360Z,100529.72
2022-07-31T18:04:57.431Z,100531.97
2022-07-31T18:07:26.473Z,100529.66
2022-07-31T18:09:57.671Z,100533.03
2022-07-31T18:12:26.406Z,100540.59
2022-07-31T18:14:55.007Z,100534.38
2022-07-31T18:17:24.167Z,100531.28
2022-07-31T18:19:52.857Z,100537.16
2022-07-31T18:22:21.428Z,100543.88
2022-07-31T18:24:50.561Z,100542.44
2022-07-31T18:27:19.147Z,100544.09
2022-07-31T18:29:55.729Z,100540.34
2022-07-31T18:32:25.264Z,100543.75
2022-07-31T18:34:53.879Z,100541.25
2022-07-31T18:37:22.556Z,100541.31
2022-07-31T18:39:51.657Z,100542.94
2022-07-31T18:42:20.630Z,100545.06
2022-07-31T18:44:49.261Z,100542.78
2022-07-31T18:47:18.358Z,100541.34
2022-07-31T18:50:58.701Z,100555.97
2022-07-31T18:52:36.137Z,100548.03
2022-07-31T18:55:05.066Z,100559.72
2022-07-31T18:57:33.748Z,100563.25
2022-07-31T19:00:02.929Z,100559.31
2022-07-31T19:02:31.509Z,100568.53
2022-07-31T19:05:00.558Z,100568.94
2022-07-31T19:07:30.333Z,100569.00
2022-07-31T19:10:08.085Z,100566.28
2022-07-31T19:12:37.100Z,100560.69
2022-07-31T19:15:06.897Z,100561.94
2022-07-31T19:17:44.066Z,100565.91
2022-07-31T19:20:40.407Z,100571.53
2022-07-31T19:23:02.586Z,100579.84
2022-07-31T19:25:59.433Z,100586.56
2022-07-31T19:28:27.174Z,100589.28
2022-07-31T19:30:56.666Z,100599.66
2022-07-31T19:33:25.585Z,100599.06
2022-07-31T19:36:00.747Z,100607.81
2022-07-31T19:38:31.847Z,100606.78
2022-07-31T19:41:00.887Z,100600.50
2022-07-31T19:43:29.719Z,100604.06
2022-07-31T19:46:10.550Z,100607.59
2022-07-31T19:48:45.562Z,100610.72
2022-07-31T19:51:16.676Z,100614.50
2022-07-31T19:53:45.471Z,100618.25
2022-07-31T19:56:20.100Z,100619.25
2022-07-31T19:58:50.220Z,100617.78
2022-07-31T20:01:22.056Z,100621.09
2022-07-31T20:03:51.147Z,100621.09
2022-07-31T20:06:19.861Z,100619.25
2022-07-31T20:08:49.289Z,100627.78
2022-07-31T20:11:18.037Z,100629.47
2022-07-31T20:13:46.605Z,100631.09
2022-07-31T20:16:16.018Z,100631.09
2022-07-31T20:18:44.736Z,100627.78
2022-07-31T20:21:13.317Z,100630.28
2022-07-31T20:23:42.099Z,100630.50
2022-07-31T20:26:12.847Z,100628.63
2022-07-31T20:28:41.647Z,100634.88
2022-07-31T20:31:15.996Z,100633.66
2022-07-31T20:33:56.887Z,100642.84
2022-07-31T20:36:28.870Z,100639.91
2022-07-31T20:38:59.062Z,100640.75
2022-07-31T20:41:28.686Z,100641.19
2022-07-31T20:43:57.377Z,100644.50
2022-07-31T20:46:28.226Z,100643.69
2022-07-31T20:48:57.646Z,100639.91
2022-07-31T20:51:26.266Z,100642.84
2022-07-31T20:53:55.216Z,100645.75
2022-07-31T20:56:23.966Z,100649.31
2022-07-31T20:58:52.549Z,100652.47
2022-07-31T21:01:22.136Z,100649.13
2022-07-31T21:03:50.696Z,100650.38
2022-07-31T21:06:22.221Z,100657.47
2022-07-31T21:08:51.026Z,100662.91
2022-07-31T21:11:20.494Z,100657.88
2022-07-31T21:13:49.086Z,100661.25
2022-07-31T21:16:19.478Z,100659.38
2022-07-31T21:18:50.766Z,100662.91
2022-07-31T21:21:19.308Z,100654.38
2022-07-31T21:23:48.893Z,100658.94
2022-07-31T21:26:17.815Z,100661.25
2022-07-31T21:28:48.468Z,100657.47
2022-07-31T21:31:17.615Z,100659.78
2022-07-31T21:33:47.056Z,100653.72
2022-07-31T21:36:15.726Z,100660.59
2022-07-31T21:38:44.965Z,100659.97
2022-07-31T21:41:13.886Z,100655.84
2022-07-31T21:43:58.649Z,100666.69
2022-07-31T21:46:29.527Z,100663.53
2022-07-31T21:48:58.558Z,100659.56
2022-07-31T21:51:27.585Z,100668.78
2022-07-31T21:53:56.387Z,100662.09
2022-07-31T21:56:24.926Z,100665.84
2022-07-31T21:58:53.485Z,100666.25
2022-07-31T22:01:22.454Z,100662.53
2022-07-31T22:03:51.176Z,100658.09
2022-07-31T22:06:37.956Z,100676.47
2022-07-31T22:09:06.637Z,100672.31
2022-07-31T22:11:36.169Z,100666.72
2022-07-31T22:14:04.756Z,100670.47
2022-07-31T22:16:33.615Z,100679.25
2022-07-31T22:19:02.536Z,100677.00
2022-07-31T22:21:31.436Z,100677.63
2022-07-31T22:24:00.676Z,100685.38
2022-07-31T22:26:32.240Z,100676.81
2022-07-31T22:29:01.394Z,100685.53
2022-07-31T22:31:30.054Z,100681.19
2022-07-31T22:33:58.755Z,100676.81
2022-07-31T22:36:27.482Z,100688.47
2022-07-31T22:38:56.221Z,100677.19
2022-07-31T22:41:25.023Z,100687.25
2022-07-31T22:44:13.853Z,100689.09
2022-07-31T22:46:43.181Z,100682.81
2022-07-31T22:49:12.075Z,100691.97
2022-07-31T22:51:43.706Z,100683.88
2022-07-31T22:54:15.586Z,100687.22
2022-07-31T22:56:44.044Z,100691.38
2022-07-31T22:59:12.761Z,100692.00
2022-07-31T23:01:41.882Z,100688.88
2022-07-31T23:04:10.479Z,100690.31
2022-07-31T23:06:39.022Z,100681.13
2022-07-31T23:09:07.962Z,100692.38
2022-07-31T23:11:36.481Z,100679.69
2022-07-31T23:14:05.233Z,100690.28
2022-07-31T23:16:34.033Z,100689.06
2022-07-31T23:19:02.923Z,100680.09
2022-07-31T23:21:31.641Z,100681.31
2022-07-31T23:24:00.397Z,100675.50
2022-07-31T23:26:29.588Z,100676.72
2022-07-31T23:28:58.097Z,100683.00
2022-07-31T23:31:27.123Z,100683.00
2022-07-31T23:33:55.752Z,100686.75
2022-07-31T23:36:24.335Z,100687.56
2022-07-31T23:38:53.172Z,100686.13
2022-07-31T23:41:54.012Z,100688.44
2022-07-31T23:44:25.102Z,100681.53
2022-07-31T23:46:53.897Z,100676.72
2022-07-31T23:49:23.248Z,100679.69
2022-07-31T23:51:52.082Z,100679.69
2022-07-31T23:54:20.643Z,100673.59
2022-07-31T23:56:49.195Z,100680.72
2022-07-31T23:59:18.102Z,100675.69
